Ana Sayfa
METAR-TAF:

METAR-TAF

Havaalanları :

Johnson County Executive Airport

Olathe, Kansas, Amerika Birleşik Devletleri

Enlem: 38-51-00N, Boylam: 094-44-21W, yükseklik: 334 m

Güncel hava durumu gözlemi

Rapor saat 04:53 UTC de 57 dakika önce yapıldı.
Rüzgar batı/güneybatıdan 3 kt
Sıcaklık 19°C
Nem 83%
Basınç 1007 hPa
Görüş mesafesi: 16.1 km
Açık gökyüzü

METAR: KOJC 270453Z AUTO 24003KT 10SM CLR 19/16 A2974 RMK AO2 RAE0357 TSE04 SLP059 P0000 T01890161

Saat: 00:50 (05:50 UTC)


TAF: eksik

4.000'den fazla havaalanı için hava durumu gözlemleri ve tahminleri (METAR ve TAF raporları).

Kullanılabilir istasyonlar harita üzerinde sarı ve kırmızı noktalarla gösterilir.

İstasyonun adını görmek için fareyi noktanın üzerinde gezdirin.

Sonrasında hava gözlem ve tahminlerini görmek için tıklayın.

Haritayı değiştirmek için: yaklaştırmak için siyah artı işaretli yeşil düğmeye ve uzaklaştırmak için de eksi işaretli düğmeye hızla tıklayın; bitişik haritalar için yeşil okları kullanın.


METAR-TAF: